METAR Data
IDs: Format: Raw Decoded Include TAF

Data at: 0549 UTC 24 Sep 2018

KSEZ 240535Z AUTO 12004KT 10SM OVC100 23/02 A3004 RMK AO2
KSEZ 240515Z AUTO 12004KT 10SM OVC100 23/02 A3004 RMK AO2
KSEZ 240455Z AUTO 14005KT 10SM OVC100 23/02 A3004 RMK AO2
KSEZ 240435Z AUTO 13005KT 10SM OVC110 24/02 A3003 RMK AO2
KSEZ 240415Z AUTO 13005KT 10SM OVC110 24/02 A3003 RMK AO2
KSEZ 240355Z AUTO 14004KT 10SM BKN110 25/02 A3003 RMK AO2
KSEZ 240335Z AUTO 13005KT 10SM BKN110 25/02 A3003 RMK AO2
KSEZ 240315Z AUTO 00000KT 10SM OVC110 25/02 A3002 RMK AO2
KSEZ 240255Z AUTO 23004KT 10SM BKN110 25/02 A3002 RMK AO2
KSEZ 240235Z AUTO 22005KT 10SM CLR 26/01 A3000 RMK AO2
KSEZ 240215Z AUTO 21006KT 10SM CLR 26/01 A3000 RMK AO2
KSEZ 240155Z AUTO 20006KT 10SM CLR 26/01 A2999 RMK AO2
KSEZ 240130Z AUTO 18006KT 10SM CLR 27/00 A2999 RMK AO2
KSEZ 240110Z AUTO 16005KT 10SM CLR 27/00 A2999 RMK AO2
KSEZ 240055Z AUTO 16005KT 10SM CLR 28/00 A2999 RMK AO2
KSEZ 240035Z AUTO 20007KT 10SM CLR 29/00 A3000 RMK AO2
KSEZ 240015Z AUTO 17005KT 10SM CLR 29/00 A2999 RMK AO2
KSEZ 232355Z AUTO 22004KT 10SM CLR 30/01 A3000 RMK AO2
KSEZ 232335Z AUTO 00000KT 10SM CLR 30/01 A3000 RMK AO2
KSEZ 232315Z AUTO 15005KT 10SM CLR 30/00 A3000 RMK AO2
KSEZ 232255Z AUTO 18008KT 10SM SCT110 31/01 A3001 RMK AO2
KSEZ 232235Z AUTO 16007KT 140V200 10SM BKN110 30/01 A3002 RMK AO2
KSEZ 232215Z AUTO 25008KT 10SM BKN110 30/02 A3002 RMK AO2
KSEZ 232155Z AUTO 17009G19KT 130V200 10SM SCT110 32/02 A3003 RMK AO2
KSEZ 232135Z AUTO 24006KT 10SM SCT110 31/02 A3004 RMK AO2
KSEZ 232115Z AUTO 17009G16KT 140V200 10SM SCT100 32/02 A3004 RMK AO2
KSEZ 232055Z AUTO 15008KT 10SM BKN100 29/03 A3006 RMK AO2
KSEZ 232035Z AUTO 19004G09KT 10SM BKN100 28/03 A3007 RMK AO2
KSEZ 232015Z AUTO 18003KT 10SM CLR 28/03 A3008 RMK AO2
KSEZ 231955Z AUTO 00000KT 10SM CLR 29/04 A3010 RMK AO2
KSEZ 231935Z AUTO 24003KT 10SM CLR 30/04 A3011 RMK AO2
KSEZ 231915Z AUTO 21006KT 10SM CLR 30/03 A3012 RMK AO2
KSEZ 231855Z AUTO 12006KT 10SM SCT110 30/04 A3013 RMK AO2
KSEZ 231835Z AUTO 17005KT 10SM CLR 30/04 A3014 RMK AO2
KSEZ 231815Z AUTO 17005KT 10SM CLR 30/03 A3015 RMK AO2
KSEZ 231755Z AUTO 17007KT 10SM CLR 28/05 A3015 RMK AO2
KSEZ 231735Z AUTO 19005KT 10SM CLR 28/06 A3015 RMK AO2
KSEZ 231715Z AUTO 23004KT 10SM CLR 26/05 A3017 RMK AO2
KSEZ 231655Z AUTO 14003KT 10SM CLR 27/06 A3017 RMK AO2
KSEZ 231635Z AUTO 14003KT 10SM CLR 26/06 A3017 RMK AO2
KSEZ 231615Z AUTO 14003KT 10SM CLR 24/06 A3017 RMK AO2
KSEZ 231555Z AUTO 15003KT 10SM CLR 25/07 A3017 RMK AO2
KSEZ 231535Z AUTO 13003KT 10SM CLR 23/06 A3017 RMK AO2
KSEZ 231515Z AUTO 08003KT 10SM CLR 23/06 A3017 RMK AO2
KSEZ 231455Z AUTO 07004KT 10SM CLR 22/06 A3017 RMK AO2
KSEZ 231435Z AUTO 03004KT 10SM CLR 20/06 A3016 RMK AO2
KSEZ 231355Z AUTO 03009KT 10SM CLR 18/06 A3015 RMK AO2
KSEZ 231335Z AUTO 03012KT 10SM CLR 18/06 A3014 RMK AO2
KSEZ 231315Z AUTO 03010KT 10SM SCT110 18/06 A3014 RMK AO2
KSEZ 231255Z AUTO 02009KT 10SM SCT110 18/06 A3014 RMK AO2
KSEZ 231235Z AUTO 02008KT 10SM SCT110 18/06 A3013 RMK AO2
KSEZ 231215Z AUTO 01009KT 10SM SCT110 18/06 A3013 RMK AO2
KSEZ 231155Z AUTO 02006KT 10SM CLR 18/06 A3013 RMK AO2
KSEZ 231135Z AUTO 02007KT 10SM CLR 18/06 A3013 RMK AO2
KSEZ 231115Z AUTO 02006KT 10SM CLR 19/06 A3012 RMK AO2
KSEZ 231055Z AUTO 02007KT 10SM CLR 20/06 A3013 RMK AO2
KSEZ 231035Z AUTO 02008KT 10SM CLR 20/06 A3012 RMK AO2
KSEZ 231015Z AUTO 02007KT 10SM CLR 20/06 A3012 RMK AO2
KSEZ 230955Z AUTO 02006KT 10SM CLR 20/06 A3012 RMK AO2
KSEZ 230935Z AUTO 01004KT 10SM CLR 20/06 A3012 RMK AO2
KSEZ 230915Z AUTO 03005KT 10SM CLR 21/06 A3012 RMK AO2
KSEZ 230850Z AUTO 02005KT 10SM CLR 20/06 A3013 RMK AO2
KSEZ 230835Z AUTO 02005KT 10SM CLR 21/06 A3013 RMK AO2
KSEZ 230815Z AUTO 02006KT 10SM CLR 21/06 A3013 RMK AO2
KSEZ 230755Z AUTO 03004KT 10SM SCT110 21/06 A3013 RMK AO2
KSEZ 230735Z AUTO 02005KT 10SM SCT110 21/06 A3013 RMK AO2
KSEZ 230715Z AUTO 02004KT 10SM CLR 22/06 A3013 RMK AO2
KSEZ 230655Z AUTO 02003KT 10SM CLR 22/06 A3013 RMK AO2
KSEZ 230635Z AUTO 02005KT 10SM CLR 22/06 A3013 RMK AO2
KSEZ 230615Z AUTO 02005KT 10SM CLR 22/06 A3013 RMK AO2
KSEZ 230555Z AUTO 02006KT 10SM CLR 22/06 A3013 RMK AO2
KSEZ 230535Z AUTO 00000KT 10SM CLR 24/06 A3013 RMK AO2
KSEZ 230515Z AUTO 11003KT 10SM SCT110 23/06 A3013 RMK AO2
KSEZ 230455Z AUTO 13004KT 10SM SCT110 24/06 A3012 RMK AO2
KSEZ 230435Z AUTO 14004KT 10SM CLR 24/06 A3012 RMK AO2
KSEZ 230415Z AUTO 00000KT 10SM CLR 24/05 A3013 RMK AO2
KSEZ 230355Z AUTO 00000KT 10SM CLR 25/05 A3012 RMK AO2
KSEZ 230340Z AUTO 00000KT 10SM CLR 25/05 A3011 RMK AO2
KSEZ 230315Z AUTO 00000KT 10SM CLR 26/04 A3011 RMK AO2
KSEZ 230255Z AUTO 20003KT 10SM CLR 26/04 A3010 RMK AO2
KSEZ 230235Z AUTO 21003KT 10SM CLR 26/05 A3010 RMK AO2
KSEZ 230155Z AUTO 22004KT 10SM CLR 27/03 A3009 RMK AO2
KSEZ 230115Z AUTO 24004KT 10SM CLR 28/03 A3010 RMK AO2
KSEZ 230055Z AUTO 23005KT 10SM CLR 28/03 A3010 RMK AO2
KSEZ 230035Z AUTO 25005KT 10SM CLR 29/04 A3010 RMK AO2
KSEZ 230015Z AUTO 20003KT 10SM CLR 30/04 A3010 RMK AO2
KSEZ 222355Z AUTO 20005KT 10SM CLR 30/04 A3010 RMK AO2
KSEZ 222335Z AUTO 20006KT 10SM CLR 30/04 A3010 RMK AO2
KSEZ 222315Z AUTO 26006KT 10SM SCT100 30/04 A3010 RMK AO2
KSEZ 222255Z AUTO 19007KT 10SM SCT100 31/04 A3010 RMK AO2
KSEZ 222235Z AUTO 34004KT 10SM SCT100 30/04 A3011 RMK AO2
KSEZ 222215Z AUTO 16005KT 10SM SCT100 32/05 A3012 RMK AO2
KSEZ 222155Z AUTO 25004KT 10SM CLR 31/05 A3013 RMK AO2
KSEZ 222135Z AUTO 21004KT 10SM CLR 30/05 A3014 RMK AO2
KSEZ 222115Z AUTO 18008KT 10SM CLR 31/05 A3015 RMK AO2
KSEZ 222055Z AUTO 22003KT 10SM CLR 31/04 A3016 RMK AO2
KSEZ 222035Z AUTO 18005G15KT 10SM CLR 30/04 A3017 RMK AO2
KSEZ 222015Z AUTO 22005KT 10SM SCT090 30/04 A3018 RMK AO2
KSEZ 221955Z AUTO 00000KT 10SM SCT090 28/05 A3019 RMK AO2
KSEZ 221935Z AUTO 27005KT 10SM CLR 29/05 A3020 RMK AO2
KSEZ 221915Z AUTO 00000KT 10SM CLR 29/03 A3021 RMK AO2
KSEZ 221855Z AUTO 17004KT 10SM CLR 28/07 A3022 RMK AO2
KSEZ 221835Z AUTO 18004KT 10SM CLR 29/08 A3023 RMK AO2
KSEZ 221815Z AUTO 15006KT 10SM CLR 28/09 A3024 RMK AO2
KSEZ 221755Z AUTO 25004KT 10SM CLR 28/08 A3025 RMK AO2